Yorkton Municipal Airport
CYQV : now visible

Airfield :











YOU CAN JOIN US ON...

 
LOGIN :

Register | Disclaimer

   EN    FR    IT 

 









Legend :    VFR   Marginal VFR   IFR   Intensive IFR   Very Intensive IFR
Visi :
Ceiling :
>= 8 km
>= 3000ft
5 to 8 km
1000 to 3000 ft
1500m to 5 km
500 to 1000 ft
800 to 1500m
200 to 500 ft
< 800m
< 200 ft
Symbols :   Thunderstorms  Fog  Heavy snow  Heavy precipitations  Wind > 20 kt






- Airport Elevation : 1635 ft
- IATA code : YQV


CYQV - Yorkton Municipal

CURRENT METAR :
  • 170000Z AUTO 29028G34KT 9SM SCT028 BKN034 BKN045 OVC091 14/07 A2949 RMK PRESRR SLP996 DENSITY ALT 2400FT

EXPIRED METARs :
  • 162348Z AUTO 29025G32KT 9SM SCT028 SCT034 BKN042 OVC092 14/08 A2948 RMK PRESRR SLP991 DENSITY ALT 2500FT
  • 162300Z AUTO 29023G34KT 9SM BKN040 BKN049 OVC071 15/08 A2944 RMK SLP978 DENSITY ALT 2600FT
  • 162211Z AUTO 28026G40KT 9SM SCT034 BKN044 BKN055 BKN076 14/08 A2940 RMK SLP964 DENSITY ALT 2600FT
  • 162200Z AUTO 28027G34KT 9SM -RA BKN034 OVC046 13/09 A2939 RMK SLP963 DENSITY ALT 2400FT
  • 162142Z AUTO 28021G34KT 8SM -RA BKN034 OVC044 14/09 A2938 RMK PRESRR SLP959 DENSITY ALT 2500FT
  • 162100Z AUTO 25029G43KT 9SM FEW033 BKN042 BKN050 OVC066 15/08 A2935 RMK SLP945 DENSITY ALT 2700FT
  • 162009Z AUTO 26037G45KT 9SM BKN040 BKN049 OVC071 15/08 A2931 RMK SLP932 DENSITY ALT 2800FT

TAF TAF CYQV
Valid from the 17 at 00:00 until the 17 at 06:00 UTC


162340Z 1700/1706 29025G35KT P6SM SCT040 BKN070
TEMPO 1700/1704 P6SM -RA BKN040 OVC070
BECMG 1701/1703 27015G25KT
FM170400 26012KT P6SM FEW050 RMK FCST BASED ON AUTO OBS. NXT FCST BY 171200Z
CZWG FIR / North America



MET'MAP, your aeronautical weather chart ! - Copyright ORBIFLY December 2007 - Disclaimer

ORBIFLY MET'MAP TEAM :

Programming & Development : Alexandra Zaïnal
Original concept : Baudouin d'Aumeries
Technical & hardware support : Manuel Goepfert
Assistance : Marc-Olivier Méhu




SOURCES & CREDITS :

   NOAA       Earth
Advisory